sensor_id;sensor_type;location;lat;lon;timestamp;pressure;altitude;pressure_sealevel;temperature
58929;BMP180;44713;53.378;10.022;2022-11-22T00:01:22;99590.00;;;-0.40
58929;BMP180;44713;53.378;10.022;2022-11-22T00:03:47;99586.00;;;-0.40
58929;BMP180;44713;53.378;10.022;2022-11-22T00:06:12;99584.00;;;-0.40
58929;BMP180;44713;53.378;10.022;2022-11-22T00:08:38;99603.00;;;-0.40
58929;BMP180;44713;53.378;10.022;2022-11-22T00:11:03;99594.00;;;-0.40
58929;BMP180;44713;53.378;10.022;2022-11-22T00:13:28;99603.00;;;-0.40
58929;BMP180;44713;53.378;10.022;2022-11-22T00:16:02;99605.00;;;-0.30
58929;BMP180;44713;53.378;10.022;2022-11-22T00:18:28;99612.00;;;-0.40
58929;BMP180;44713;53.378;10.022;2022-11-22T00:20:54;99607.00;;;-0.40
58929;BMP180;44713;53.378;10.022;2022-11-22T00:23:19;99608.00;;;-0.40
58929;BMP180;44713;53.378;10.022;2022-11-22T00:25:45;99610.00;;;-0.30
58929;BMP180;44713;53.378;10.022;2022-11-22T00:28:10;99603.00;;;-0.30
58929;BMP180;44713;53.378;10.022;2022-11-22T00:30:36;99604.00;;;-0.40
58929;BMP180;44713;53.378;10.022;2022-11-22T00:33:01;99598.00;;;-0.40
58929;BMP180;44713;53.378;10.022;2022-11-22T00:35:26;99599.00;;;-0.30
58929;BMP180;44713;53.378;10.022;2022-11-22T00:37:52;99603.00;;;-0.30
58929;BMP180;44713;53.378;10.022;2022-11-22T00:40:17;99601.00;;;-0.30
58929;BMP180;44713;53.378;10.022;2022-11-22T00:42:43;99593.00;;;-0.20
58929;BMP180;44713;53.378;10.022;2022-11-22T00:45:08;99590.00;;;-0.20
58929;BMP180;44713;53.378;10.022;2022-11-22T00:47:35;99595.00;;;-0.20
58929;BMP180;44713;53.378;10.022;2022-11-22T00:50:00;99583.00;;;-0.30
58929;BMP180;44713;53.378;10.022;2022-11-22T00:52:25;99582.00;;;-0.20
58929;BMP180;44713;53.378;10.022;2022-11-22T00:54:51;99591.00;;;-0.30
58929;BMP180;44713;53.378;10.022;2022-11-22T00:57:16;99596.00;;;-0.20
58929;BMP180;44713;53.378;10.022;2022-11-22T00:59:41;99589.00;;;-0.20
58929;BMP180;44713;53.378;10.022;2022-11-22T01:02:06;99585.00;;;-0.10
58929;BMP180;44713;53.378;10.022;2022-11-22T01:04:32;99585.00;;;0.00
58929;BMP180;44713;53.378;10.022;2022-11-22T01:06:57;99580.00;;;-0.10
58929;BMP180;44713;53.378;10.022;2022-11-22T01:09:23;99579.00;;;-0.10
58929;BMP180;44713;53.378;10.022;2022-11-22T01:11:49;99566.00;;;0.00
58929;BMP180;44713;53.378;10.022;2022-11-22T01:14:15;99569.00;;;0.10
58929;BMP180;44713;53.378;10.022;2022-11-22T01:16:41;99566.00;;;0.10
58929;BMP180;44713;53.378;10.022;2022-11-22T01:19:06;99571.00;;;0.00
58929;BMP180;44713;53.378;10.022;2022-11-22T01:21:32;99552.00;;;0.00
58929;BMP180;44713;53.378;10.022;2022-11-22T01:23:57;99552.00;;;0.00
58929;BMP180;44713;53.378;10.022;2022-11-22T01:26:22;99551.00;;;0.10
58929;BMP180;44713;53.378;10.022;2022-11-22T01:28:48;99541.00;;;0.00
58929;BMP180;44713;53.378;10.022;2022-11-22T01:31:13;99543.00;;;0.10
58929;BMP180;44713;53.378;10.022;2022-11-22T01:33:38;99544.00;;;0.10
58929;BMP180;44713;53.378;10.022;2022-11-22T01:36:04;99547.00;;;0.10
58929;BMP180;44713;53.378;10.022;2022-11-22T01:38:29;99551.00;;;0.10
58929;BMP180;44713;53.378;10.022;2022-11-22T01:40:54;99554.00;;;0.20
58929;BMP180;44713;53.378;10.022;2022-11-22T01:43:22;99556.00;;;0.10
58929;BMP180;44713;53.378;10.022;2022-11-22T01:45:50;99562.00;;;0.10
58929;BMP180;44713;53.378;10.022;2022-11-22T01:50:43;99565.00;;;0.10
58929;BMP180;44713;53.378;10.022;2022-11-22T01:53:16;99562.00;;;0.20
58929;BMP180;44713;53.378;10.022;2022-11-22T01:55:44;99550.00;;;0.20
58929;BMP180;44713;53.378;10.022;2022-11-22T01:58:11;99530.00;;;0.10
58929;BMP180;44713;53.378;10.022;2022-11-22T02:00:38;99530.00;;;0.20
58929;BMP180;44713;53.378;10.022;2022-11-22T02:03:06;99524.00;;;0.20
58929;BMP180;44713;53.378;10.022;2022-11-22T02:05:34;99520.00;;;0.20
58929;BMP180;44713;53.378;10.022;2022-11-22T02:08:09;99512.00;;;0.20
58929;BMP180;44713;53.378;10.022;2022-11-22T02:10:42;99520.00;;;0.20
58929;BMP180;44713;53.378;10.022;2022-11-22T02:13:09;99516.00;;;0.10
58929;BMP180;44713;53.378;10.022;2022-11-22T02:15:35;99531.00;;;0.10
58929;BMP180;44713;53.378;10.022;2022-11-22T02:18:01;99511.00;;;0.20
58929;BMP180;44713;53.378;10.022;2022-11-22T02:20:26;99516.00;;;0.20
58929;BMP180;44713;53.378;10.022;2022-11-22T02:23:02;99511.00;;;0.20
58929;BMP180;44713;53.378;10.022;2022-11-22T02:28:02;99510.00;;;0.20
58929;BMP180;44713;53.378;10.022;2022-11-22T02:30:28;99509.00;;;0.20
58929;BMP180;44713;53.378;10.022;2022-11-22T02:32:53;99508.00;;;0.20
58929;BMP180;44713;53.378;10.022;2022-11-22T02:35:21;99505.00;;;0.10
58929;BMP180;44713;53.378;10.022;2022-11-22T02:37:48;99505.00;;;0.10
58929;BMP180;44713;53.378;10.022;2022-11-22T02:40:16;99494.00;;;0.10
58929;BMP180;44713;53.378;10.022;2022-11-22T02:42:44;99489.00;;;0.10
58929;BMP180;44713;53.378;10.022;2022-11-22T02:45:10;99486.00;;;0.10
58929;BMP180;44713;53.378;10.022;2022-11-22T02:47:35;99479.00;;;0.10
58929;BMP180;44713;53.378;10.022;2022-11-22T02:50:00;99480.00;;;0.20
58929;BMP180;44713;53.378;10.022;2022-11-22T02:52:26;99476.00;;;0.20
58929;BMP180;44713;53.378;10.022;2022-11-22T02:54:51;99481.00;;;0.20
58929;BMP180;44713;53.378;10.022;2022-11-22T02:57:16;99476.00;;;0.20
58929;BMP180;44713;53.378;10.022;2022-11-22T02:59:42;99466.00;;;0.20
58929;BMP180;44713;53.378;10.022;2022-11-22T03:02:07;99467.00;;;0.20
58929;BMP180;44713;53.378;10.022;2022-11-22T03:04:32;99454.00;;;0.20
58929;BMP180;44713;53.378;10.022;2022-11-22T03:06:58;99449.00;;;0.20
58929;BMP180;44713;53.378;10.022;2022-11-22T03:09:25;99470.00;;;0.20
58929;BMP180;44713;53.378;10.022;2022-11-22T03:11:52;99470.00;;;0.20
58929;BMP180;44713;53.378;10.022;2022-11-22T03:14:18;99472.00;;;0.20
58929;BMP180;44713;53.378;10.022;2022-11-22T03:16:45;99481.00;;;0.30
58929;BMP180;44713;53.378;10.022;2022-11-22T03:19:11;99489.00;;;0.20
58929;BMP180;44713;53.378;10.022;2022-11-22T03:21:38;99495.00;;;0.30
58929;BMP180;44713;53.378;10.022;2022-11-22T03:24:04;99496.00;;;0.20
58929;BMP180;44713;53.378;10.022;2022-11-22T03:26:29;99489.00;;;0.20
58929;BMP180;44713;53.378;10.022;2022-11-22T03:28:55;99485.00;;;0.10
58929;BMP180;44713;53.378;10.022;2022-11-22T03:31:20;99473.00;;;0.20
58929;BMP180;44713;53.378;10.022;2022-11-22T03:33:45;99467.00;;;0.20
58929;BMP180;44713;53.378;10.022;2022-11-22T03:36:11;99468.00;;;0.20
58929;BMP180;44713;53.378;10.022;2022-11-22T03:38:36;99477.00;;;0.30
58929;BMP180;44713;53.378;10.022;2022-11-22T03:41:01;99462.00;;;0.30
58929;BMP180;44713;53.378;10.022;2022-11-22T03:43:27;99460.00;;;0.20
58929;BMP180;44713;53.378;10.022;2022-11-22T03:45:52;99457.00;;;0.20
58929;BMP180;44713;53.378;10.022;2022-11-22T03:48:18;99459.00;;;0.30
58929;BMP180;44713;53.378;10.022;2022-11-22T03:50:44;99450.00;;;0.20
58929;BMP180;44713;53.378;10.022;2022-11-22T03:53:09;99455.00;;;0.10
58929;BMP180;44713;53.378;10.022;2022-11-22T03:55:35;99455.00;;;0.20
58929;BMP180;44713;53.378;10.022;2022-11-22T03:58:00;99446.00;;;0.30
58929;BMP180;44713;53.378;10.022;2022-11-22T04:00:26;99461.00;;;0.20
58929;BMP180;44713;53.378;10.022;2022-11-22T04:02:51;99463.00;;;0.20
58929;BMP180;44713;53.378;10.022;2022-11-22T04:05:17;99446.00;;;0.20
58929;BMP180;44713;53.378;10.022;2022-11-22T04:07:42;99448.00;;;0.20
58929;BMP180;44713;53.378;10.022;2022-11-22T04:10:07;99454.00;;;0.30
58929;BMP180;44713;53.378;10.022;2022-11-22T04:12:33;99464.00;;;0.20
58929;BMP180;44713;53.378;10.022;2022-11-22T04:14:59;99465.00;;;0.30
58929;BMP180;44713;53.378;10.022;2022-11-22T04:17:41;99471.00;;;0.30
58929;BMP180;44713;53.378;10.022;2022-11-22T04:20:19;99467.00;;;0.30
58929;BMP180;44713;53.378;10.022;2022-11-22T04:23:06;99467.00;;;0.30
58929;BMP180;44713;53.378;10.022;2022-11-22T04:25:33;99461.00;;;0.30
58929;BMP180;44713;53.378;10.022;2022-11-22T04:27:59;99456.00;;;0.30
58929;BMP180;44713;53.378;10.022;2022-11-22T04:30:25;99450.00;;;0.30
58929;BMP180;44713;53.378;10.022;2022-11-22T04:33:11;99444.00;;;0.40
58929;BMP180;44713;53.378;10.022;2022-11-22T04:35:37;99429.00;;;0.40
58929;BMP180;44713;53.378;10.022;2022-11-22T04:38:03;99432.00;;;0.40
58929;BMP180;44713;53.378;10.022;2022-11-22T04:40:29;99424.00;;;0.30
58929;BMP180;44713;53.378;10.022;2022-11-22T04:42:55;99428.00;;;0.40
58929;BMP180;44713;53.378;10.022;2022-11-22T04:45:39;99429.00;;;0.50
58929;BMP180;44713;53.378;10.022;2022-11-22T04:48:04;99425.00;;;0.50
58929;BMP180;44713;53.378;10.022;2022-11-22T04:50:30;99430.00;;;0.50
58929;BMP180;44713;53.378;10.022;2022-11-22T04:53:15;99423.00;;;0.40
58929;BMP180;44713;53.378;10.022;2022-11-22T04:55:43;99439.00;;;0.50
58929;BMP180;44713;53.378;10.022;2022-11-22T04:58:08;99434.00;;;0.50
58929;BMP180;44713;53.378;10.022;2022-11-22T05:00:34;99426.00;;;0.60
58929;BMP180;44713;53.378;10.022;2022-11-22T05:03:00;99428.00;;;0.60
58929;BMP180;44713;53.378;10.022;2022-11-22T05:05:26;99422.00;;;0.60
58929;BMP180;44713;53.378;10.022;2022-11-22T05:07:51;99420.00;;;0.70
58929;BMP180;44713;53.378;10.022;2022-11-22T05:10:17;99407.00;;;0.60
58929;BMP180;44713;53.378;10.022;2022-11-22T05:12:42;99407.00;;;0.60
58929;BMP180;44713;53.378;10.022;2022-11-22T05:15:11;99417.00;;;0.60
58929;BMP180;44713;53.378;10.022;2022-11-22T05:17:37;99421.00;;;0.60
58929;BMP180;44713;53.378;10.022;2022-11-22T05:20:04;99421.00;;;0.60
58929;BMP180;44713;53.378;10.022;2022-11-22T05:22:29;99425.00;;;0.70
58929;BMP180;44713;53.378;10.022;2022-11-22T05:25:13;99427.00;;;0.60
58929;BMP180;44713;53.378;10.022;2022-11-22T05:27:38;99437.00;;;0.60
58929;BMP180;44713;53.378;10.022;2022-11-22T05:30:04;99434.00;;;0.70
58929;BMP180;44713;53.378;10.022;2022-11-22T05:32:31;99434.00;;;0.70
58929;BMP180;44713;53.378;10.022;2022-11-22T05:34:57;99441.00;;;0.70
58929;BMP180;44713;53.378;10.022;2022-11-22T05:37:23;99429.00;;;0.80
58929;BMP180;44713;53.378;10.022;2022-11-22T05:39:48;99424.00;;;0.80
58929;BMP180;44713;53.378;10.022;2022-11-22T05:42:14;99429.00;;;0.80
58929;BMP180;44713;53.378;10.022;2022-11-22T05:44:39;99424.00;;;0.80
58929;BMP180;44713;53.378;10.022;2022-11-22T05:47:04;99420.00;;;0.80
58929;BMP180;44713;53.378;10.022;2022-11-22T05:49:30;99417.00;;;0.90
58929;BMP180;44713;53.378;10.022;2022-11-22T05:51:55;99419.00;;;0.90
58929;BMP180;44713;53.378;10.022;2022-11-22T05:54:21;99414.00;;;0.90
58929;BMP180;44713;53.378;10.022;2022-11-22T05:56:46;99411.00;;;0.90
58929;BMP180;44713;53.378;10.022;2022-11-22T05:59:13;99413.00;;;0.90
58929;BMP180;44713;53.378;10.022;2022-11-22T06:01:39;99415.00;;;0.80
58929;BMP180;44713;53.378;10.022;2022-11-22T06:04:04;99413.00;;;0.90
58929;BMP180;44713;53.378;10.022;2022-11-22T06:06:30;99427.00;;;0.90
58929;BMP180;44713;53.378;10.022;2022-11-22T06:08:55;99423.00;;;0.90
58929;BMP180;44713;53.378;10.022;2022-11-22T06:11:26;99424.00;;;0.90
58929;BMP180;44713;53.378;10.022;2022-11-22T06:13:59;99435.00;;;1.00
58929;BMP180;44713;53.378;10.022;2022-11-22T06:16:27;99443.00;;;1.00
58929;BMP180;44713;53.378;10.022;2022-11-22T06:18:53;99445.00;;;1.00
58929;BMP180;44713;53.378;10.022;2022-11-22T06:21:20;99448.00;;;1.00
58929;BMP180;44713;53.378;10.022;2022-11-22T06:23:48;99445.00;;;1.00
58929;BMP180;44713;53.378;10.022;2022-11-22T06:26:16;99453.00;;;1.10
58929;BMP180;44713;53.378;10.022;2022-11-22T06:28:42;99459.00;;;1.00
58929;BMP180;44713;53.378;10.022;2022-11-22T06:31:24;99464.00;;;1.10
58929;BMP180;44713;53.378;10.022;2022-11-22T06:33:52;99462.00;;;1.10
58929;BMP180;44713;53.378;10.022;2022-11-22T06:36:20;99475.00;;;1.10
58929;BMP180;44713;53.378;10.022;2022-11-22T06:38:46;99470.00;;;1.10
58929;BMP180;44713;53.378;10.022;2022-11-22T06:41:17;99463.00;;;1.10
58929;BMP180;44713;53.378;10.022;2022-11-22T06:43:44;99453.00;;;1.10
58929;BMP180;44713;53.378;10.022;2022-11-22T06:46:11;99451.00;;;1.10
58929;BMP180;44713;53.378;10.022;2022-11-22T06:48:38;99443.00;;;1.10
58929;BMP180;44713;53.378;10.022;2022-11-22T06:53:36;99453.00;;;1.10
58929;BMP180;44713;53.378;10.022;2022-11-22T06:56:08;99445.00;;;1.10
58929;BMP180;44713;53.378;10.022;2022-11-22T06:58:35;99448.00;;;1.10
58929;BMP180;44713;53.378;10.022;2022-11-22T07:01:08;99453.00;;;1.10
58929;BMP180;44713;53.378;10.022;2022-11-22T07:03:35;99450.00;;;1.10
58929;BMP180;44713;53.378;10.022;2022-11-22T07:06:01;99451.00;;;1.10
58929;BMP180;44713;53.378;10.022;2022-11-22T07:08:26;99447.00;;;1.20
58929;BMP180;44713;53.378;10.022;2022-11-22T07:10:52;99454.00;;;1.10
58929;BMP180;44713;53.378;10.022;2022-11-22T07:13:18;99451.00;;;1.20
58929;BMP180;44713;53.378;10.022;2022-11-22T07:15:52;99461.00;;;1.10
58929;BMP180;44713;53.378;10.022;2022-11-22T07:18:18;99454.00;;;1.10
58929;BMP180;44713;53.378;10.022;2022-11-22T07:20:43;99448.00;;;1.20
58929;BMP180;44713;53.378;10.022;2022-11-22T07:23:08;99448.00;;;1.10
58929;BMP180;44713;53.378;10.022;2022-11-22T07:25:36;99436.00;;;1.10
58929;BMP180;44713;53.378;10.022;2022-11-22T07:28:02;99437.00;;;1.20
58929;BMP180;44713;53.378;10.022;2022-11-22T07:30:27;99440.00;;;1.20
58929;BMP180;44713;53.378;10.022;2022-11-22T07:32:52;99442.00;;;1.20
58929;BMP180;44713;53.378;10.022;2022-11-22T07:35:18;99447.00;;;1.20
58929;BMP180;44713;53.378;10.022;2022-11-22T07:37:43;99444.00;;;1.20
58929;BMP180;44713;53.378;10.022;2022-11-22T07:40:09;99451.00;;;1.20
58929;BMP180;44713;53.378;10.022;2022-11-22T07:42:35;99442.00;;;1.20
58929;BMP180;44713;53.378;10.022;2022-11-22T07:45:00;99449.00;;;1.20
58929;BMP180;44713;53.378;10.022;2022-11-22T07:47:25;99459.00;;;1.20
58929;BMP180;44713;53.378;10.022;2022-11-22T07:49:50;99458.00;;;1.20
58929;BMP180;44713;53.378;10.022;2022-11-22T07:52:16;99454.00;;;1.10
58929;BMP180;44713;53.378;10.022;2022-11-22T07:54:41;99454.00;;;1.10
58929;BMP180;44713;53.378;10.022;2022-11-22T07:57:07;99457.00;;;1.10
58929;BMP180;44713;53.378;10.022;2022-11-22T07:59:32;99454.00;;;1.10
58929;BMP180;44713;53.378;10.022;2022-11-22T08:01:57;99459.00;;;1.10
58929;BMP180;44713;53.378;10.022;2022-11-22T08:04:22;99464.00;;;1.10
58929;BMP180;44713;53.378;10.022;2022-11-22T08:06:48;99465.00;;;1.20
58929;BMP180;44713;53.378;10.022;2022-11-22T08:09:13;99455.00;;;1.20
58929;BMP180;44713;53.378;10.022;2022-11-22T08:11:39;99473.00;;;1.20
58929;BMP180;44713;53.378;10.022;2022-11-22T08:14:04;99467.00;;;1.20
58929;BMP180;44713;53.378;10.022;2022-11-22T08:16:30;99469.00;;;1.30
58929;BMP180;44713;53.378;10.022;2022-11-22T08:18:56;99480.00;;;1.30
58929;BMP180;44713;53.378;10.022;2022-11-22T08:21:22;99482.00;;;1.30
58929;BMP180;44713;53.378;10.022;2022-11-22T08:23:47;99491.00;;;1.20
58929;BMP180;44713;53.378;10.022;2022-11-22T08:26:15;99491.00;;;1.20
58929;BMP180;44713;53.378;10.022;2022-11-22T08:28:42;99488.00;;;1.30
58929;BMP180;44713;53.378;10.022;2022-11-22T08:31:13;99482.00;;;1.20
58929;BMP180;44713;53.378;10.022;2022-11-22T08:33:42;99485.00;;;1.20
58929;BMP180;44713;53.378;10.022;2022-11-22T08:36:07;99481.00;;;1.20
58929;BMP180;44713;53.378;10.022;2022-11-22T08:38:33;99482.00;;;1.20
58929;BMP180;44713;53.378;10.022;2022-11-22T08:40:59;99484.00;;;1.20
58929;BMP180;44713;53.378;10.022;2022-11-22T08:43:24;99481.00;;;1.30
58929;BMP180;44713;53.378;10.022;2022-11-22T08:45:55;99472.00;;;1.30
58929;BMP180;44713;53.378;10.022;2022-11-22T08:48:22;99480.00;;;1.30
58929;BMP180;44713;53.378;10.022;2022-11-22T08:50:55;99480.00;;;1.30
58929;BMP180;44713;53.378;10.022;2022-11-22T08:53:23;99485.00;;;1.40
58929;BMP180;44713;53.378;10.022;2022-11-22T08:55:49;99488.00;;;1.30
58929;BMP180;44713;53.378;10.022;2022-11-22T08:58:14;99495.00;;;1.40
58929;BMP180;44713;53.378;10.022;2022-11-22T09:00:40;99496.00;;;1.40
58929;BMP180;44713;53.378;10.022;2022-11-22T09:03:05;99504.00;;;1.40
58929;BMP180;44713;53.378;10.022;2022-11-22T09:05:31;99502.00;;;1.30
58929;BMP180;44713;53.378;10.022;2022-11-22T09:07:57;99496.00;;;1.30
58929;BMP180;44713;53.378;10.022;2022-11-22T09:10:22;99508.00;;;1.40
58929;BMP180;44713;53.378;10.022;2022-11-22T09:12:47;99517.00;;;1.40
58929;BMP180;44713;53.378;10.022;2022-11-22T09:15:13;99511.00;;;1.40
58929;BMP180;44713;53.378;10.022;2022-11-22T09:17:40;99516.00;;;1.50
58929;BMP180;44713;53.378;10.022;2022-11-22T09:20:06;99506.00;;;1.40
58929;BMP180;44713;53.378;10.022;2022-11-22T09:22:31;99516.00;;;1.40
58929;BMP180;44713;53.378;10.022;2022-11-22T09:24:57;99520.00;;;1.40
58929;BMP180;44713;53.378;10.022;2022-11-22T09:27:22;99512.00;;;1.50
58929;BMP180;44713;53.378;10.022;2022-11-22T09:29:48;99519.00;;;1.50
58929;BMP180;44713;53.378;10.022;2022-11-22T09:32:13;99531.00;;;1.50
58929;BMP180;44713;53.378;10.022;2022-11-22T09:34:38;99528.00;;;1.60
58929;BMP180;44713;53.378;10.022;2022-11-22T09:37:04;99523.00;;;1.60
58929;BMP180;44713;53.378;10.022;2022-11-22T09:39:29;99527.00;;;1.70
58929;BMP180;44713;53.378;10.022;2022-11-22T09:42:14;99536.00;;;1.70
58929;BMP180;44713;53.378;10.022;2022-11-22T09:47:59;99535.00;;;1.70
58929;BMP180;44713;53.378;10.022;2022-11-22T09:53:09;99532.00;;;1.70
58929;BMP180;44713;53.378;10.022;2022-11-22T09:55:40;99544.00;;;1.80
58929;BMP180;44713;53.378;10.022;2022-11-22T09:58:31;99529.00;;;1.90
58929;BMP180;44713;53.378;10.022;2022-11-22T10:03:44;99521.00;;;1.90
58929;BMP180;44713;53.378;10.022;2022-11-22T10:06:28;99535.00;;;1.90
58929;BMP180;44713;53.378;10.022;2022-11-22T10:11:33;99523.00;;;1.90
58929;BMP180;44713;53.378;10.022;2022-11-22T10:14:13;99533.00;;;1.90
58929;BMP180;44713;53.378;10.022;2022-11-22T10:16:46;99524.00;;;1.90
58929;BMP180;44713;53.378;10.022;2022-11-22T10:19:21;99536.00;;;2.00
58929;BMP180;44713;53.378;10.022;2022-11-22T10:21:48;99536.00;;;2.10
58929;BMP180;44713;53.378;10.022;2022-11-22T10:24:15;99535.00;;;2.10
58929;BMP180;44713;53.378;10.022;2022-11-22T10:26:41;99548.00;;;2.10
58929;BMP180;44713;53.378;10.022;2022-11-22T10:29:29;99543.00;;;2.10
58929;BMP180;44713;53.378;10.022;2022-11-22T10:37:59;99544.00;;;2.30
58929;BMP180;44713;53.378;10.022;2022-11-22T10:43:30;99542.00;;;2.40
58929;BMP180;44713;53.378;10.022;2022-11-22T10:48:59;99529.00;;;2.50
58929;BMP180;44713;53.378;10.022;2022-11-22T10:51:49;99525.00;;;2.60
58929;BMP180;44713;53.378;10.022;2022-11-22T10:54:48;99538.00;;;2.60
58929;BMP180;44713;53.378;10.022;2022-11-22T10:57:32;99543.00;;;2.60
58929;BMP180;44713;53.378;10.022;2022-11-22T11:05:29;99542.00;;;2.70
58929;BMP180;44713;53.378;10.022;2022-11-22T11:07:59;99555.00;;;2.60
58929;BMP180;44713;53.378;10.022;2022-11-22T11:10:30;99542.00;;;2.70
58929;BMP180;44713;53.378;10.022;2022-11-22T11:13:15;99539.00;;;2.70
58929;BMP180;44713;53.378;10.022;2022-11-22T11:15:47;99538.00;;;2.70
58929;BMP180;44713;53.378;10.022;2022-11-22T11:18:19;99539.00;;;2.70
58929;BMP180;44713;53.378;10.022;2022-11-22T11:20:46;99533.00;;;2.70
58929;BMP180;44713;53.378;10.022;2022-11-22T11:23:13;99536.00;;;2.70
58929;BMP180;44713;53.378;10.022;2022-11-22T11:25:40;99542.00;;;2.80
58929;BMP180;44713;53.378;10.022;2022-11-22T11:28:18;99538.00;;;2.80
58929;BMP180;44713;53.378;10.022;2022-11-22T11:30:51;99532.00;;;2.70
58929;BMP180;44713;53.378;10.022;2022-11-22T11:33:28;99535.00;;;2.90
58929;BMP180;44713;53.378;10.022;2022-11-22T11:38:32;99518.00;;;2.90
58929;BMP180;44713;53.378;10.022;2022-11-22T11:41:15;99518.00;;;3.00
58929;BMP180;44713;53.378;10.022;2022-11-22T11:43:42;99526.00;;;3.00
58929;BMP180;44713;53.378;10.022;2022-11-22T11:46:18;99526.00;;;3.00
58929;BMP180;44713;53.378;10.022;2022-11-22T11:48:44;99523.00;;;3.00
58929;BMP180;44713;53.378;10.022;2022-11-22T11:53:40;99514.00;;;3.00
58929;BMP180;44713;53.378;10.022;2022-11-22T11:56:32;99519.00;;;3.10
58929;BMP180;44713;53.378;10.022;2022-11-22T11:59:03;99513.00;;;3.20
58929;BMP180;44713;53.378;10.022;2022-11-22T12:01:32;99503.00;;;3.20
58929;BMP180;44713;53.378;10.022;2022-11-22T12:04:01;99507.00;;;3.20
58929;BMP180;44713;53.378;10.022;2022-11-22T12:06:30;99504.00;;;3.20
58929;BMP180;44713;53.378;10.022;2022-11-22T12:08:57;99512.00;;;3.30
58929;BMP180;44713;53.378;10.022;2022-11-22T12:11:31;99511.00;;;3.40
58929;BMP180;44713;53.378;10.022;2022-11-22T12:13:59;99510.00;;;3.40
58929;BMP180;44713;53.378;10.022;2022-11-22T12:16:29;99495.00;;;3.40
58929;BMP180;44713;53.378;10.022;2022-11-22T12:19:35;99497.00;;;3.40
58929;BMP180;44713;53.378;10.022;2022-11-22T12:25:15;99510.00;;;3.50
58929;BMP180;44713;53.378;10.022;2022-11-22T12:27:44;99503.00;;;3.60
58929;BMP180;44713;53.378;10.022;2022-11-22T12:30:13;99506.00;;;3.60
58929;BMP180;44713;53.378;10.022;2022-11-22T12:32:44;99505.00;;;3.50
58929;BMP180;44713;53.378;10.022;2022-11-22T12:35:14;99506.00;;;3.50
58929;BMP180;44713;53.378;10.022;2022-11-22T12:37:51;99507.00;;;3.60
58929;BMP180;44713;53.378;10.022;2022-11-22T12:40:32;99508.00;;;3.50
58929;BMP180;44713;53.378;10.022;2022-11-22T12:43:03;99507.00;;;3.60
58929;BMP180;44713;53.378;10.022;2022-11-22T12:45:42;99517.00;;;3.60
58929;BMP180;44713;53.378;10.022;2022-11-22T12:48:15;99511.00;;;3.60
58929;BMP180;44713;53.378;10.022;2022-11-22T12:53:13;99516.00;;;3.50
58929;BMP180;44713;53.378;10.022;2022-11-22T12:55:53;99504.00;;;3.50
58929;BMP180;44713;53.378;10.022;2022-11-22T12:58:49;99499.00;;;3.50
58929;BMP180;44713;53.378;10.022;2022-11-22T13:01:46;99498.00;;;3.50
58929;BMP180;44713;53.378;10.022;2022-11-22T13:06:46;99514.00;;;3.40
58929;BMP180;44713;53.378;10.022;2022-11-22T13:09:27;99520.00;;;3.40
58929;BMP180;44713;53.378;10.022;2022-11-22T13:12:01;99509.00;;;3.30
58929;BMP180;44713;53.378;10.022;2022-11-22T13:14:32;99521.00;;;3.30
58929;BMP180;44713;53.378;10.022;2022-11-22T13:16:58;99536.00;;;3.40
58929;BMP180;44713;53.378;10.022;2022-11-22T13:19:28;99533.00;;;3.30
58929;BMP180;44713;53.378;10.022;2022-11-22T13:22:27;99540.00;;;3.40
58929;BMP180;44713;53.378;10.022;2022-11-22T13:25:30;99546.00;;;3.40
58929;BMP180;44713;53.378;10.022;2022-11-22T13:27:58;99551.00;;;3.40
58929;BMP180;44713;53.378;10.022;2022-11-22T13:30:28;99554.00;;;3.40
58929;BMP180;44713;53.378;10.022;2022-11-22T13:32:56;99550.00;;;3.40
58929;BMP180;44713;53.378;10.022;2022-11-22T13:35:35;99542.00;;;3.40
58929;BMP180;44713;53.378;10.022;2022-11-22T13:38:09;99537.00;;;3.30
58929;BMP180;44713;53.378;10.022;2022-11-22T13:40:43;99541.00;;;3.30
58929;BMP180;44713;53.378;10.022;2022-11-22T13:45:51;99544.00;;;3.30
58929;BMP180;44713;53.378;10.022;2022-11-22T13:51:47;99537.00;;;3.30
58929;BMP180;44713;53.378;10.022;2022-11-22T13:54:35;99533.00;;;3.20
58929;BMP180;44713;53.378;10.022;2022-11-22T13:59:27;99540.00;;;3.30
58929;BMP180;44713;53.378;10.022;2022-11-22T14:01:54;99530.00;;;3.40
58929;BMP180;44713;53.378;10.022;2022-11-22T14:09:33;99536.00;;;3.30
58929;BMP180;44713;53.378;10.022;2022-11-22T14:20:28;99528.00;;;3.40
58929;BMP180;44713;53.378;10.022;2022-11-22T14:23:23;99531.00;;;3.40
58929;BMP180;44713;53.378;10.022;2022-11-22T14:26:10;99550.00;;;3.40
58929;BMP180;44713;53.378;10.022;2022-11-22T14:29:02;99542.00;;;3.40
58929;BMP180;44713;53.378;10.022;2022-11-22T14:31:32;99550.00;;;3.40
58929;BMP180;44713;53.378;10.022;2022-11-22T14:34:24;99560.00;;;3.50
58929;BMP180;44713;53.378;10.022;2022-11-22T14:50:03;99578.00;;;3.30
58929;BMP180;44713;53.378;10.022;2022-11-22T14:52:33;99580.00;;;3.30
58929;BMP180;44713;53.378;10.022;2022-11-22T14:55:02;99584.00;;;3.20
58929;BMP180;44713;53.378;10.022;2022-11-22T14:57:32;99584.00;;;3.20
58929;BMP180;44713;53.378;10.022;2022-11-22T15:00:19;99579.00;;;3.10
58929;BMP180;44713;53.378;10.022;2022-11-22T15:08:05;99577.00;;;3.00
58929;BMP180;44713;53.378;10.022;2022-11-22T15:16:20;99552.00;;;3.00
58929;BMP180;44713;53.378;10.022;2022-11-22T15:18:51;99565.00;;;3.00
58929;BMP180;44713;53.378;10.022;2022-11-22T15:21:28;99563.00;;;2.90
58929;BMP180;44713;53.378;10.022;2022-11-22T15:23:55;99573.00;;;3.00
58929;BMP180;44713;53.378;10.022;2022-11-22T15:26:22;99575.00;;;3.00
58929;BMP180;44713;53.378;10.022;2022-11-22T15:28:50;99580.00;;;3.00
58929;BMP180;44713;53.378;10.022;2022-11-22T15:31:20;99574.00;;;2.90
58929;BMP180;44713;53.378;10.022;2022-11-22T15:33:49;99581.00;;;3.00
58929;BMP180;44713;53.378;10.022;2022-11-22T15:38:49;99576.00;;;2.90
58929;BMP180;44713;53.378;10.022;2022-11-22T15:41:20;99576.00;;;2.90
58929;BMP180;44713;53.378;10.022;2022-11-22T15:43:47;99586.00;;;2.80
58929;BMP180;44713;53.378;10.022;2022-11-22T15:46:17;99585.00;;;2.80
58929;BMP180;44713;53.378;10.022;2022-11-22T15:48:47;99595.00;;;2.90
58929;BMP180;44713;53.378;10.022;2022-11-22T15:53:40;99605.00;;;2.80
58929;BMP180;44713;53.378;10.022;2022-11-22T15:56:20;99601.00;;;2.80
58929;BMP180;44713;53.378;10.022;2022-11-22T15:58:52;99591.00;;;2.80
58929;BMP180;44713;53.378;10.022;2022-11-22T16:01:19;99607.00;;;2.80